sensor_id;sensor_type;location;lat;lon;timestamp;pressure;altitude;pressure_sealevel;temperature;humidity
10466;BME280;5280;42.600;23.556;2022-07-09T00:00:15;93331.44;;;18.11;100.00
10466;BME280;5280;42.600;23.556;2022-07-09T00:02:42;93339.13;;;18.22;100.00
10466;BME280;5280;42.600;23.556;2022-07-09T00:05:09;93335.47;;;18.23;100.00
10466;BME280;5280;42.600;23.556;2022-07-09T00:07:40;93303.38;;;18.06;100.00
10466;BME280;5280;42.600;23.556;2022-07-09T00:10:07;93329.09;;;18.16;100.00
10466;BME280;5280;42.600;23.556;2022-07-09T00:12:37;93327.25;;;18.24;100.00
10466;BME280;5280;42.600;23.556;2022-07-09T00:15:04;93323.91;;;18.22;100.00
10466;BME280;5280;42.600;23.556;2022-07-09T00:17:32;93277.94;;;17.94;100.00
10466;BME280;5280;42.600;23.556;2022-07-09T00:20:00;93287.50;;;17.97;100.00
10466;BME280;5280;42.600;23.556;2022-07-09T00:22:30;93301.69;;;18.05;100.00
10466;BME280;5280;42.600;23.556;2022-07-09T00:24:58;93308.19;;;18.11;100.00
10466;BME280;5280;42.600;23.556;2022-07-09T00:27:25;93288.50;;;17.88;100.00
10466;BME280;5280;42.600;23.556;2022-07-09T00:29:53;93258.59;;;17.76;100.00
10466;BME280;5280;42.600;23.556;2022-07-09T00:32:20;93302.53;;;18.06;100.00
10466;BME280;5280;42.600;23.556;2022-07-09T00:34:47;93298.69;;;18.00;100.00
10466;BME280;5280;42.600;23.556;2022-07-09T00:37:14;93265.09;;;17.74;100.00
10466;BME280;5280;42.600;23.556;2022-07-09T00:39:41;93289.66;;;17.93;100.00
10466;BME280;5280;42.600;23.556;2022-07-09T00:42:10;93252.38;;;17.59;100.00
10466;BME280;5280;42.600;23.556;2022-07-09T00:44:38;93278.28;;;17.91;100.00
10466;BME280;5280;42.600;23.556;2022-07-09T00:47:07;93278.63;;;17.88;100.00
10466;BME280;5280;42.600;23.556;2022-07-09T00:49:38;93276.13;;;17.71;100.00
10466;BME280;5280;42.600;23.556;2022-07-09T00:52:07;93296.69;;;17.86;100.00
10466;BME280;5280;42.600;23.556;2022-07-09T00:54:36;93253.53;;;17.57;100.00
10466;BME280;5280;42.600;23.556;2022-07-09T00:57:07;93271.97;;;17.68;100.00
10466;BME280;5280;42.600;23.556;2022-07-09T00:59:35;93295.00;;;17.85;100.00
10466;BME280;5280;42.600;23.556;2022-07-09T01:02:03;93289.66;;;17.85;100.00
10466;BME280;5280;42.600;23.556;2022-07-09T01:04:31;93287.31;;;17.82;100.00
10466;BME280;5280;42.600;23.556;2022-07-09T01:06:58;93287.97;;;17.84;100.00
10466;BME280;5280;42.600;23.556;2022-07-09T01:09:25;93276.13;;;17.79;100.00
10466;BME280;5280;42.600;23.556;2022-07-09T01:11:53;93290.50;;;17.86;100.00
10466;BME280;5280;42.600;23.556;2022-07-09T01:14:20;93273.13;;;17.82;100.00
10466;BME280;5280;42.600;23.556;2022-07-09T01:16:56;93274.28;;;17.79;100.00
10466;BME280;5280;42.600;23.556;2022-07-09T01:19:23;93275.63;;;17.75;100.00
10466;BME280;5280;42.600;23.556;2022-07-09T01:21:51;93249.69;;;17.51;100.00
10466;BME280;5280;42.600;23.556;2022-07-09T01:24:18;93274.13;;;17.73;100.00
10466;BME280;5280;42.600;23.556;2022-07-09T01:26:45;93269.75;;;17.63;100.00
10466;BME280;5280;42.600;23.556;2022-07-09T01:29:12;93258.19;;;17.55;100.00
10466;BME280;5280;42.600;23.556;2022-07-09T01:31:39;93257.88;;;17.50;100.00
10466;BME280;5280;42.600;23.556;2022-07-09T01:34:06;93258.06;;;17.48;100.00
10466;BME280;5280;42.600;23.556;2022-07-09T01:36:33;93201.41;;;17.12;100.00
10466;BME280;5280;42.600;23.556;2022-07-09T01:39:02;93267.59;;;17.59;100.00
10466;BME280;5280;42.600;23.556;2022-07-09T01:41:29;93219.75;;;17.23;100.00
10466;BME280;5280;42.600;23.556;2022-07-09T01:43:56;93259.88;;;17.56;100.00
10466;BME280;5280;42.600;23.556;2022-07-09T01:46:23;93268.25;;;17.61;100.00
10466;BME280;5280;42.600;23.556;2022-07-09T01:48:50;93260.88;;;17.55;100.00
10466;BME280;5280;42.600;23.556;2022-07-09T01:51:17;93268.59;;;17.58;100.00
10466;BME280;5280;42.600;23.556;2022-07-09T01:53:44;93258.19;;;17.55;100.00
10466;BME280;5280;42.600;23.556;2022-07-09T01:56:13;93264.88;;;17.51;100.00
10466;BME280;5280;42.600;23.556;2022-07-09T01:58:40;93252.19;;;17.45;100.00
10466;BME280;5280;42.600;23.556;2022-07-09T02:01:06;93285.97;;;17.62;100.00
10466;BME280;5280;42.600;23.556;2022-07-09T02:03:33;93275.78;;;17.66;100.00
10466;BME280;5280;42.600;23.556;2022-07-09T02:06:01;93276.28;;;17.69;100.00
10466;BME280;5280;42.600;23.556;2022-07-09T02:08:27;93266.63;;;17.68;100.00
10466;BME280;5280;42.600;23.556;2022-07-09T02:10:54;93272.94;;;17.75;100.00
10466;BME280;5280;42.600;23.556;2022-07-09T02:13:24;93233.81;;;17.50;100.00
10466;BME280;5280;42.600;23.556;2022-07-09T02:15:52;93280.31;;;17.81;100.00
10466;BME280;5280;42.600;23.556;2022-07-09T02:18:19;93272.97;;;17.67;100.00
10466;BME280;5280;42.600;23.556;2022-07-09T02:20:46;93259.19;;;17.54;100.00
10466;BME280;5280;42.600;23.556;2022-07-09T02:23:13;93275.31;;;17.78;100.00
10466;BME280;5280;42.600;23.556;2022-07-09T02:25:40;93270.59;;;17.80;100.00
10466;BME280;5280;42.600;23.556;2022-07-09T02:28:06;93277.28;;;17.84;100.00
10466;BME280;5280;42.600;23.556;2022-07-09T02:30:35;93266.63;;;17.68;100.00
10466;BME280;5280;42.600;23.556;2022-07-09T02:33:02;93279.13;;;17.84;100.00
10466;BME280;5280;42.600;23.556;2022-07-09T02:35:29;93273.78;;;17.76;100.00
10466;BME280;5280;42.600;23.556;2022-07-09T02:37:57;93294.84;;;17.87;100.00
10466;BME280;5280;42.600;23.556;2022-07-09T02:40:24;93282.66;;;17.76;100.00
10466;BME280;5280;42.600;23.556;2022-07-09T02:42:51;93289.16;;;17.82;100.00
10466;BME280;5280;42.600;23.556;2022-07-09T02:45:18;93236.00;;;17.46;100.00
10466;BME280;5280;42.600;23.556;2022-07-09T02:47:47;93291.00;;;17.73;100.00
10466;BME280;5280;42.600;23.556;2022-07-09T02:50:14;93246.84;;;17.45;100.00
10466;BME280;5280;42.600;23.556;2022-07-09T02:52:41;93247.16;;;17.34;100.00
10466;BME280;5280;42.600;23.556;2022-07-09T02:55:08;93307.03;;;17.73;100.00
10466;BME280;5280;42.600;23.556;2022-07-09T02:57:35;93303.34;;;17.74;100.00
10466;BME280;5280;42.600;23.556;2022-07-09T03:00:03;93290.66;;;17.68;100.00
10466;BME280;5280;42.600;23.556;2022-07-09T03:02:30;93306.38;;;17.71;100.00
10466;BME280;5280;42.600;23.556;2022-07-09T03:04:58;93309.53;;;17.67;100.00
10466;BME280;5280;42.600;23.556;2022-07-09T03:07:25;93305.00;;;17.59;100.00
10466;BME280;5280;42.600;23.556;2022-07-09T03:09:52;93275.72;;;17.41;100.00
10466;BME280;5280;42.600;23.556;2022-07-09T03:12:19;93303.31;;;17.58;100.00
10466;BME280;5280;42.600;23.556;2022-07-09T03:14:46;93298.94;;;17.49;100.00
10466;BME280;5280;42.600;23.556;2022-07-09T03:17:13;93301.47;;;17.42;100.00
10466;BME280;5280;42.600;23.556;2022-07-09T03:19:39;93312.16;;;17.58;100.00
10466;BME280;5280;42.600;23.556;2022-07-09T03:22:08;93312.00;;;17.52;100.00
10466;BME280;5280;42.600;23.556;2022-07-09T03:24:35;93302.44;;;17.49;100.00
10466;BME280;5280;42.600;23.556;2022-07-09T03:27:02;93309.34;;;17.60;100.00
10466;BME280;5280;42.600;23.556;2022-07-09T03:29:29;93295.78;;;17.53;100.00
10466;BME280;5280;42.600;23.556;2022-07-09T03:31:57;93243.94;;;17.14;100.00
10466;BME280;5280;42.600;23.556;2022-07-09T03:34:24;93306.31;;;17.47;100.00
10466;BME280;5280;42.600;23.556;2022-07-09T03:36:51;93309.66;;;17.57;100.00
10466;BME280;5280;42.600;23.556;2022-07-09T03:39:19;93222.91;;;17.03;100.00
10466;BME280;5280;42.600;23.556;2022-07-09T03:41:46;93300.66;;;17.58;100.00
10466;BME280;5280;42.600;23.556;2022-07-09T03:44:13;93276.22;;;17.37;100.00
10466;BME280;5280;42.600;23.556;2022-07-09T03:46:40;93293.28;;;17.52;100.00
10466;BME280;5280;42.600;23.556;2022-07-09T03:49:07;93304.00;;;17.60;100.00
10466;BME280;5280;42.600;23.556;2022-07-09T03:51:35;93309.69;;;17.65;100.00
10466;BME280;5280;42.600;23.556;2022-07-09T03:54:03;93309.38;;;17.68;100.00
10466;BME280;5280;42.600;23.556;2022-07-09T03:56:31;93301.16;;;17.70;100.00
10466;BME280;5280;42.600;23.556;2022-07-09T03:58:58;93296.81;;;17.69;100.00
10466;BME280;5280;42.600;23.556;2022-07-09T04:01:25;93292.50;;;17.68;100.00
10466;BME280;5280;42.600;23.556;2022-07-09T04:03:55;93300.34;;;17.61;100.00
10466;BME280;5280;42.600;23.556;2022-07-09T04:06:22;93257.19;;;17.40;100.00
10466;BME280;5280;42.600;23.556;2022-07-09T04:08:49;93296.00;;;17.68;100.00
10466;BME280;5280;42.600;23.556;2022-07-09T04:11:17;93255.50;;;17.39;100.00
10466;BME280;5280;42.600;23.556;2022-07-09T04:13:46;93278.94;;;17.53;100.00
10466;BME280;5280;42.600;23.556;2022-07-09T04:16:18;93272.06;;;17.50;100.00
10466;BME280;5280;42.600;23.556;2022-07-09T04:18:48;93309.88;;;17.72;100.00
10466;BME280;5280;42.600;23.556;2022-07-09T04:21:15;93316.56;;;17.68;100.00
10466;BME280;5280;42.600;23.556;2022-07-09T04:23:43;93297.66;;;17.61;100.00
10466;BME280;5280;42.600;23.556;2022-07-09T04:26:10;93316.38;;;17.69;100.00
10466;BME280;5280;42.600;23.556;2022-07-09T04:28:36;93264.22;;;17.41;100.00
10466;BME280;5280;42.600;23.556;2022-07-09T04:31:08;93311.53;;;17.64;100.00
10466;BME280;5280;42.600;23.556;2022-07-09T04:33:35;93305.34;;;17.64;100.00
10466;BME280;5280;42.600;23.556;2022-07-09T04:36:02;93274.56;;;17.44;100.00
10466;BME280;5280;42.600;23.556;2022-07-09T04:38:30;93313.03;;;17.67;100.00
10466;BME280;5280;42.600;23.556;2022-07-09T04:40:58;93266.19;;;17.39;100.00
10466;BME280;5280;42.600;23.556;2022-07-09T04:43:25;93265.38;;;17.38;100.00
10466;BME280;5280;42.600;23.556;2022-07-09T04:45:52;93278.91;;;17.45;100.00
10466;BME280;5280;42.600;23.556;2022-07-09T04:48:20;93309.53;;;17.75;100.00
10466;BME280;5280;42.600;23.556;2022-07-09T04:50:48;93309.88;;;17.80;100.00
10466;BME280;5280;42.600;23.556;2022-07-09T04:53:14;93305.22;;;17.82;100.00
10466;BME280;5280;42.600;23.556;2022-07-09T04:55:41;93269.22;;;17.52;100.00
10466;BME280;5280;42.600;23.556;2022-07-09T04:58:08;93275.91;;;17.48;100.00
10466;BME280;5280;42.600;23.556;2022-07-09T05:00:36;93304.38;;;17.73;100.00
10466;BME280;5280;42.600;23.556;2022-07-09T05:03:03;93310.06;;;17.78;100.00
10466;BME280;5280;42.600;23.556;2022-07-09T05:05:31;93315.72;;;17.75;100.00
10466;BME280;5280;42.600;23.556;2022-07-09T05:07:58;93302.16;;;17.69;100.00
10466;BME280;5280;42.600;23.556;2022-07-09T05:10:25;93243.50;;;17.35;100.00
10466;BME280;5280;42.600;23.556;2022-07-09T05:12:52;93277.41;;;17.50;100.00
10466;BME280;5280;42.600;23.556;2022-07-09T05:15:19;93296.16;;;17.67;100.00
10466;BME280;5280;42.600;23.556;2022-07-09T05:17:46;93301.03;;;17.63;100.00
10466;BME280;5280;42.600;23.556;2022-07-09T05:20:44;93326.22;;;17.69;100.00
10466;BME280;5280;42.600;23.556;2022-07-09T05:23:19;93270.72;;;17.46;100.00
10466;BME280;5280;42.600;23.556;2022-07-09T05:25:46;93266.72;;;17.42;100.00
10466;BME280;5280;42.600;23.556;2022-07-09T05:28:13;93328.94;;;17.77;100.00
10466;BME280;5280;42.600;23.556;2022-07-09T05:30:39;93329.91;;;17.76;100.00
10466;BME280;5280;42.600;23.556;2022-07-09T05:33:07;93340.63;;;17.68;100.00
10466;BME280;5280;42.600;23.556;2022-07-09T05:35:39;93340.78;;;17.74;100.00
10466;BME280;5280;42.600;23.556;2022-07-09T05:38:06;93302.28;;;17.51;100.00
10466;BME280;5280;42.600;23.556;2022-07-09T05:40:38;93345.13;;;17.83;100.00
10466;BME280;5280;42.600;23.556;2022-07-09T05:43:30;93340.13;;;17.80;100.00
10466;BME280;5280;42.600;23.556;2022-07-09T05:46:11;93290.59;;;17.44;100.00
10466;BME280;5280;42.600;23.556;2022-07-09T05:48:38;93340.63;;;17.76;100.00
10466;BME280;5280;42.600;23.556;2022-07-09T05:51:07;93319.03;;;17.61;100.00
10466;BME280;5280;42.600;23.556;2022-07-09T05:53:34;93342.44;;;17.83;100.00
10466;BME280;5280;42.600;23.556;2022-07-09T05:56:01;93351.84;;;17.87;100.00
10466;BME280;5280;42.600;23.556;2022-07-09T05:58:28;93343.81;;;17.87;100.00
10466;BME280;5280;42.600;23.556;2022-07-09T06:00:55;93274.25;;;17.47;100.00
10466;BME280;5280;42.600;23.556;2022-07-09T06:03:23;93345.47;;;17.88;100.00
10466;BME280;5280;42.600;23.556;2022-07-09T06:05:50;93348.81;;;17.90;100.00
10466;BME280;5280;42.600;23.556;2022-07-09T06:08:18;93293.78;;;17.55;100.00
10466;BME280;5280;42.600;23.556;2022-07-09T06:10:45;93281.59;;;17.53;100.00
10466;BME280;5280;42.600;23.556;2022-07-09T06:13:12;93305.50;;;17.79;100.00
10466;BME280;5280;42.600;23.556;2022-07-09T06:15:39;93298.00;;;17.66;100.00
10466;BME280;5280;42.600;23.556;2022-07-09T06:18:07;93336.97;;;18.01;100.00
10466;BME280;5280;42.600;23.556;2022-07-09T06:20:34;93349.50;;;18.00;100.00
10466;BME280;5280;42.600;23.556;2022-07-09T06:23:01;93277.22;;;17.44;100.00
10466;BME280;5280;42.600;23.556;2022-07-09T06:25:31;93265.50;;;17.29;100.00
10466;BME280;5280;42.600;23.556;2022-07-09T06:27:59;93270.38;;;17.41;100.00
10466;BME280;5280;42.600;23.556;2022-07-09T06:30:29;93321.22;;;17.66;100.00
10466;BME280;5280;42.600;23.556;2022-07-09T06:32:59;93334.59;;;17.90;100.00
10466;BME280;5280;42.600;23.556;2022-07-09T06:35:50;93298.53;;;17.78;100.00
10466;BME280;5280;42.600;23.556;2022-07-09T06:38:47;93344.47;;;17.89;100.00
10466;BME280;5280;42.600;23.556;2022-07-09T06:44:57;93330.09;;;17.90;100.00
10466;BME280;5280;42.600;23.556;2022-07-09T06:48:05;93361.22;;;18.08;100.00
10466;BME280;5280;42.600;23.556;2022-07-09T06:50:37;93290.34;;;17.63;100.00
10466;BME280;5280;42.600;23.556;2022-07-09T06:53:25;93265.91;;;17.58;100.00
10466;BME280;5280;42.600;23.556;2022-07-09T06:55:56;93276.59;;;17.58;100.00
10466;BME280;5280;42.600;23.556;2022-07-09T06:58:32;93277.59;;;17.57;100.00
10466;BME280;5280;42.600;23.556;2022-07-09T07:01:01;93308.69;;;17.74;100.00
10466;BME280;5280;42.600;23.556;2022-07-09T07:03:28;93268.06;;;17.54;100.00
10466;BME280;5280;42.600;23.556;2022-07-09T07:05:55;93362.19;;;17.98;100.00
10466;BME280;5280;42.600;23.556;2022-07-09T07:08:22;93337.44;;;17.80;100.00
10466;BME280;5280;42.600;23.556;2022-07-09T07:10:56;93333.09;;;17.71;100.00
10466;BME280;5280;42.600;23.556;2022-07-09T07:13:39;93369.22;;;17.91;100.00
10466;BME280;5280;42.600;23.556;2022-07-09T07:16:23;93327.78;;;17.87;100.00
10466;BME280;5280;42.600;23.556;2022-07-09T07:19:00;93359.88;;;18.12;100.00
10466;BME280;5280;42.600;23.556;2022-07-09T07:36:25;93273.28;;;17.72;100.00
10466;BME280;5280;42.600;23.556;2022-07-09T07:41:28;93320.75;;;18.11;100.00
10466;BME280;5280;42.600;23.556;2022-07-09T07:47:01;93356.50;;;18.34;100.00
10466;BME280;5280;42.600;23.556;2022-07-09T07:49:28;93305.69;;;18.10;100.00
10466;BME280;5280;42.600;23.556;2022-07-09T07:51:57;93315.38;;;18.27;100.00
10466;BME280;5280;42.600;23.556;2022-07-09T07:54:25;93297.69;;;18.18;100.00
10466;BME280;5280;42.600;23.556;2022-07-09T07:56:52;93354.34;;;18.54;100.00
10466;BME280;5280;42.600;23.556;2022-07-09T07:59:20;93312.53;;;18.28;100.00
10466;BME280;5280;42.600;23.556;2022-07-09T08:01:47;93310.00;;;18.35;100.00
10466;BME280;5280;42.600;23.556;2022-07-09T08:04:15;93351.50;;;18.55;100.00
10466;BME280;5280;42.600;23.556;2022-07-09T08:06:42;93308.34;;;18.34;100.00
10466;BME280;5280;42.600;23.556;2022-07-09T08:09:11;93301.31;;;18.41;100.00
10466;BME280;5280;42.600;23.556;2022-07-09T08:11:38;93353.47;;;18.69;100.00
10466;BME280;5280;42.600;23.556;2022-07-09T08:14:06;93318.34;;;18.48;100.00
10466;BME280;5280;42.600;23.556;2022-07-09T08:16:35;93329.38;;;18.53;100.00
10466;BME280;5280;42.600;23.556;2022-07-09T08:19:02;93321.56;;;18.35;100.00
10466;BME280;5280;42.600;23.556;2022-07-09T08:21:29;93305.50;;;18.19;100.00
10466;BME280;5280;42.600;23.556;2022-07-09T08:23:59;93268.44;;;17.92;100.00
10466;BME280;5280;42.600;23.556;2022-07-09T08:26:31;93320.72;;;18.19;100.00
10466;BME280;5280;42.600;23.556;2022-07-09T08:28:58;93339.78;;;18.32;100.00
10466;BME280;5280;42.600;23.556;2022-07-09T08:31:29;93344.63;;;18.44;100.00
10466;BME280;5280;42.600;23.556;2022-07-09T08:33:56;93361.03;;;18.58;100.00
10466;BME280;5280;42.600;23.556;2022-07-09T08:36:24;93348.47;;;18.58;100.00
10466;BME280;5280;42.600;23.556;2022-07-09T08:38:51;93351.81;;;18.52;100.00
10466;BME280;5280;42.600;23.556;2022-07-09T08:41:18;93326.88;;;18.43;100.00
10466;BME280;5280;42.600;23.556;2022-07-09T08:43:50;93362.84;;;18.65;100.00
10466;BME280;5280;42.600;23.556;2022-07-09T08:46:18;93301.00;;;18.20;100.00
10466;BME280;5280;42.600;23.556;2022-07-09T08:48:45;93335.91;;;18.50;100.00
10466;BME280;5280;42.600;23.556;2022-07-09T08:51:13;93352.19;;;18.57;100.00
10466;BME280;5280;42.600;23.556;2022-07-09T08:53:43;93361.53;;;18.61;100.00
10466;BME280;5280;42.600;23.556;2022-07-09T08:56:11;93317.38;;;18.41;100.00
10466;BME280;5280;42.600;23.556;2022-07-09T08:58:39;93367.84;;;18.68;100.00
10466;BME280;5280;42.600;23.556;2022-07-09T09:01:13;93363.69;;;18.66;100.00
10466;BME280;5280;42.600;23.556;2022-07-09T09:03:41;93363.84;;;18.64;100.00
10466;BME280;5280;42.600;23.556;2022-07-09T09:06:10;93322.88;;;18.39;100.00
10466;BME280;5280;42.600;23.556;2022-07-09T09:11:13;93338.78;;;18.57;100.00
10466;BME280;5280;42.600;23.556;2022-07-09T09:13:44;93281.25;;;18.29;100.00
10466;BME280;5280;42.600;23.556;2022-07-09T09:16:14;93365.00;;;18.86;100.00
10466;BME280;5280;42.600;23.556;2022-07-09T09:18:43;93286.28;;;18.32;100.00
10466;BME280;5280;42.600;23.556;2022-07-09T09:21:12;93336.25;;;18.64;100.00
10466;BME280;5280;42.600;23.556;2022-07-09T09:23:43;93333.88;;;18.77;100.00
10466;BME280;5280;42.600;23.556;2022-07-09T09:26:12;93352.75;;;18.91;100.00
10466;BME280;5280;42.600;23.556;2022-07-09T09:28:49;93309.78;;;18.77;100.00
10466;BME280;5280;42.600;23.556;2022-07-09T09:31:25;93299.28;;;18.67;100.00
10466;BME280;5280;42.600;23.556;2022-07-09T09:33:53;93312.59;;;18.83;100.00
10466;BME280;5280;42.600;23.556;2022-07-09T09:36:30;93322.78;;;18.88;100.00
10466;BME280;5280;42.600;23.556;2022-07-09T09:39:11;93354.91;;;18.96;100.00
10466;BME280;5280;42.600;23.556;2022-07-09T09:41:41;93358.06;;;19.00;100.00
10466;BME280;5280;42.600;23.556;2022-07-09T09:44:09;93310.00;;;18.59;100.00
10466;BME280;5280;42.600;23.556;2022-07-09T09:46:39;93387.06;;;18.96;100.00
10466;BME280;5280;42.600;23.556;2022-07-09T09:49:07;93315.84;;;18.63;100.00
10466;BME280;5280;42.600;23.556;2022-07-09T09:51:36;93367.50;;;18.79;100.00
10466;BME280;5280;42.600;23.556;2022-07-09T09:54:04;93368.31;;;18.88;100.00
10466;BME280;5280;42.600;23.556;2022-07-09T09:56:31;93341.91;;;18.69;100.00
10466;BME280;5280;42.600;23.556;2022-07-09T09:58:59;93375.69;;;18.86;99.27
10466;BME280;5280;42.600;23.556;2022-07-09T10:01:27;93377.91;;;18.74;100.00
10466;BME280;5280;42.600;23.556;2022-07-09T10:03:57;93380.09;;;18.63;97.86
10466;BME280;5280;42.600;23.556;2022-07-09T10:06:24;93332.06;;;18.45;100.00
10466;BME280;5280;42.600;23.556;2022-07-09T10:08:53;93367.19;;;18.74;98.49
10466;BME280;5280;42.600;23.556;2022-07-09T10:11:20;93374.84;;;18.85;98.06
10466;BME280;5280;42.600;23.556;2022-07-09T10:13:51;93344.41;;;18.78;100.00
10466;BME280;5280;42.600;23.556;2022-07-09T10:16:18;93299.97;;;18.37;96.30
10466;BME280;5280;42.600;23.556;2022-07-09T10:18:52;93364.00;;;18.79;98.85
10466;BME280;5280;42.600;23.556;2022-07-09T10:21:33;93313.50;;;18.52;98.70
10466;BME280;5280;42.600;23.556;2022-07-09T10:24:01;93361.97;;;18.89;100.00
10466;BME280;5280;42.600;23.556;2022-07-09T10:26:36;93372.63;;;19.05;100.00
10466;BME280;5280;42.600;23.556;2022-07-09T10:29:17;93367.91;;;19.15;98.85
10466;BME280;5280;42.600;23.556;2022-07-09T10:31:45;93368.38;;;19.27;97.78
10466;BME280;5280;42.600;23.556;2022-07-09T10:34:37;93374.16;;;19.39;99.09
10466;BME280;5280;42.600;23.556;2022-07-09T10:37:07;93363.44;;;19.39;97.83
10466;BME280;5280;42.600;23.556;2022-07-09T10:39:33;93325.19;;;19.14;96.65
10466;BME280;5280;42.600;23.556;2022-07-09T10:42:02;93371.81;;;19.52;99.54
10466;BME280;5280;42.600;23.556;2022-07-09T10:44:34;93339.00;;;19.42;99.69
10466;BME280;5280;42.600;23.556;2022-07-09T10:47:02;93259.81;;;19.00;100.00
10466;BME280;5280;42.600;23.556;2022-07-09T10:49:30;93324.75;;;19.41;98.05
10466;BME280;5280;42.600;23.556;2022-07-09T10:51:57;93369.22;;;19.66;93.05
10466;BME280;5280;42.600;23.556;2022-07-09T10:54:26;93328.97;;;19.35;93.49
10466;BME280;5280;42.600;23.556;2022-07-09T10:56:54;93283.88;;;19.08;89.79
10466;BME280;5280;42.600;23.556;2022-07-09T10:59:22;93367.63;;;19.49;89.40
10466;BME280;5280;42.600;23.556;2022-07-09T11:01:50;93371.13;;;19.50;89.66
10466;BME280;5280;42.600;23.556;2022-07-09T11:04:27;93346.88;;;19.35;93.57
10466;BME280;5280;42.600;23.556;2022-07-09T11:06:55;93368.25;;;19.59;94.05
10466;BME280;5280;42.600;23.556;2022-07-09T11:09:22;93372.22;;;19.63;91.63
10466;BME280;5280;42.600;23.556;2022-07-09T11:11:50;93308.59;;;19.18;89.14
10466;BME280;5280;42.600;23.556;2022-07-09T11:14:20;93352.91;;;19.45;86.53
10466;BME280;5280;42.600;23.556;2022-07-09T11:16:54;93376.28;;;19.59;90.95
10466;BME280;5280;42.600;23.556;2022-07-09T11:19:21;93383.00;;;19.55;90.02
10466;BME280;5280;42.600;23.556;2022-07-09T11:21:49;93365.09;;;19.56;87.46
10466;BME280;5280;42.600;23.556;2022-07-09T11:24:18;93361.56;;;19.55;92.29
10466;BME280;5280;42.600;23.556;2022-07-09T11:26:47;93350.84;;;19.55;88.33
10466;BME280;5280;42.600;23.556;2022-07-09T11:29:16;93364.19;;;19.63;89.79
10466;BME280;5280;42.600;23.556;2022-07-09T11:31:48;93359.66;;;19.64;86.30
10466;BME280;5280;42.600;23.556;2022-07-09T11:34:16;93368.00;;;19.77;87.03
10466;BME280;5280;42.600;23.556;2022-07-09T11:36:45;93322.56;;;19.45;86.87
10466;BME280;5280;42.600;23.556;2022-07-09T11:39:24;93324.19;;;19.54;90.41
10466;BME280;5280;42.600;23.556;2022-07-09T11:41:52;93370.53;;;19.70;90.75
10466;BME280;5280;42.600;23.556;2022-07-09T11:44:22;93310.72;;;19.31;91.48
10466;BME280;5280;42.600;23.556;2022-07-09T11:47:03;93364.91;;;19.57;96.53
10466;BME280;5280;42.600;23.556;2022-07-09T11:52:02;93312.69;;;19.45;94.66
10466;BME280;5280;42.600;23.556;2022-07-09T11:54:30;93363.09;;;19.81;93.61
10466;BME280;5280;42.600;23.556;2022-07-09T11:56:59;93291.91;;;19.39;93.76
10466;BME280;5280;42.600;23.556;2022-07-09T11:59:28;93278.88;;;19.36;93.65
10466;BME280;5280;42.600;23.556;2022-07-09T12:02:00;93334.34;;;19.66;95.36
10466;BME280;5280;42.600;23.556;2022-07-09T12:04:29;93365.78;;;19.81;94.80
10466;BME280;5280;42.600;23.556;2022-07-09T12:06:57;93303.66;;;19.46;95.99
10466;BME280;5280;42.600;23.556;2022-07-09T12:09:28;93355.81;;;19.66;97.78
10466;BME280;5280;42.600;23.556;2022-07-09T12:11:57;93356.03;;;19.57;100.00
10466;BME280;5280;42.600;23.556;2022-07-09T12:14:24;93352.47;;;19.64;99.96
10466;BME280;5280;42.600;23.556;2022-07-09T12:16:55;93338.72;;;19.67;100.00
10466;BME280;5280;42.600;23.556;2022-07-09T12:19:23;93344.16;;;19.82;100.00
10466;BME280;5280;42.600;23.556;2022-07-09T12:21:53;93338.50;;;19.77;97.93
10466;BME280;5280;42.600;23.556;2022-07-09T12:24:20;93349.84;;;19.79;97.10
10466;BME280;5280;42.600;23.556;2022-07-09T12:26:46;93292.63;;;19.33;95.92
10466;BME280;5280;42.600;23.556;2022-07-09T12:29:14;93357.19;;;19.85;95.38
10466;BME280;5280;42.600;23.556;2022-07-09T12:31:41;93313.78;;;19.59;96.56
10466;BME280;5280;42.600;23.556;2022-07-09T12:34:09;93349.31;;;19.84;92.91
10466;BME280;5280;42.600;23.556;2022-07-09T12:36:36;93308.66;;;19.49;95.29
10466;BME280;5280;42.600;23.556;2022-07-09T12:39:04;93324.72;;;19.49;95.46
10466;BME280;5280;42.600;23.556;2022-07-09T12:41:30;93336.53;;;19.63;95.13
10466;BME280;5280;42.600;23.556;2022-07-09T12:43:58;93319.94;;;19.28;93.36
10466;BME280;5280;42.600;23.556;2022-07-09T12:46:25;93320.69;;;19.14;95.31
10466;BME280;5280;42.600;23.556;2022-07-09T12:48:54;93269.59;;;18.85;97.02
10466;BME280;5280;42.600;23.556;2022-07-09T12:51:22;93361.97;;;19.36;96.80
10466;BME280;5280;42.600;23.556;2022-07-09T12:53:50;93355.31;;;19.24;98.27
10466;BME280;5280;42.600;23.556;2022-07-09T12:56:19;93347.94;;;19.18;98.38
10466;BME280;5280;42.600;23.556;2022-07-09T12:58:46;93345.22;;;19.34;97.06
10466;BME280;5280;42.600;23.556;2022-07-09T13:01:13;93352.25;;;19.35;97.02
10466;BME280;5280;42.600;23.556;2022-07-09T13:03:41;93260.06;;;18.82;98.19
10466;BME280;5280;42.600;23.556;2022-07-09T13:06:08;93301.97;;;19.06;97.33
10466;BME280;5280;42.600;23.556;2022-07-09T13:08:51;93277.97;;;18.82;98.65
10466;BME280;5280;42.600;23.556;2022-07-09T13:11:18;93283.44;;;18.88;98.74
10466;BME280;5280;42.600;23.556;2022-07-09T13:13:48;93309.00;;;19.07;97.49
10466;BME280;5280;42.600;23.556;2022-07-09T13:16:20;93306.34;;;18.99;97.63
10466;BME280;5280;42.600;23.556;2022-07-09T13:18:48;93297.16;;;19.02;97.81
10466;BME280;5280;42.600;23.556;2022-07-09T13:21:16;93307.88;;;18.93;98.54
10466;BME280;5280;42.600;23.556;2022-07-09T13:23:44;93283.13;;;18.91;99.61
10466;BME280;5280;42.600;23.556;2022-07-09T13:26:12;93318.16;;;19.13;99.32
10466;BME280;5280;42.600;23.556;2022-07-09T13:28:40;93308.16;;;19.07;100.00
10466;BME280;5280;42.600;23.556;2022-07-09T13:31:12;93337.91;;;19.20;100.00